Time;durP1;ratioP1;P1;durP2;ratioP2;P2;SDS_P1;SDS_P2;PMS_P1;PMS_P2;Temp;Humidity;BMP_temperature;BMP_pressure;BME280_temperature;BME280_humidity;BME280_pressure;Samples;Min_cycle;Max_cycle;Signal;HPM_P1;HPM_P2
2023/06/28 00:03:09;;;;;;;;;;;15.90;99.90;;;;;;8379555;28;20005;-81
2023/06/28 00:07:10;;;;;;;;;;;15.60;99.90;;;;;;8381396;28;20453;-82
2023/06/28 00:11:11;;;;;;;;;;;15.60;99.90;;;;;;8386900;28;19912;-80
2023/06/28 00:15:11;;;;;;;;;;;16.10;99.90;;;;;;8387155;28;20421;-80
2023/06/28 00:19:12;;;;;;;;;;;15.40;99.90;;;;;;8398522;28;19916;-81
2023/06/28 00:23:13;;;;;;;;;;;16.20;99.90;;;;;;8409886;28;19923;-80
2023/06/28 00:27:13;;;;;;;;;;;16.10;99.90;;;;;;8388115;28;19983;-80
2023/06/28 00:31:14;;;;;;;;;;;15.60;99.90;;;;;;8385674;28;19919;-81
2023/06/28 00:35:14;;;;;;;;;;;15.40;99.90;;;;;;8384743;28;19923;-81
2023/06/28 00:39:15;;;;;;;;;;;15.60;99.90;;;;;;8409691;28;19962;-81
2023/06/28 00:43:15;;;;;;;;;;;15.10;99.90;;;;;;8385575;28;19913;-80
2023/06/28 00:47:16;;;;;;;;;;;15.60;99.90;;;;;;8384352;28;19912;-81
2023/06/28 00:51:17;;;;;;;;;;;15.40;99.90;;;;;;8386338;28;19915;-81
2023/06/28 00:55:17;;;;;;;;;;;15.20;99.90;;;;;;8388290;28;20261;-80
2023/06/28 00:59:18;;;;;;;;;;;15.80;99.90;;;;;;8384167;28;19913;-81
2023/06/28 01:03:19;;;;;;;;;;;16.30;99.90;;;;;;8399073;28;19962;-80
2023/06/28 01:07:20;;;;;;;;;;;15.40;99.90;;;;;;8404218;28;19916;-80
2023/06/28 01:11:20;;;;;;;;;;;15.20;99.90;;;;;;8395271;28;19912;-81
2023/06/28 01:15:21;;;;;;;;;;;16.00;99.90;;;;;;8404981;28;19919;-82
2023/06/28 01:19:25;;;;;;;;;;;15.40;99.90;;;;;;8388954;28;19923;-80
2023/06/28 01:23:26;;;;;;;;;;;15.50;99.90;;;;;;8408785;28;19916;-80
2023/06/28 01:27:26;;;;;;;;;;;16.10;99.90;;;;;;8390701;28;20301;-81
2023/06/28 01:31:27;;;;;;;;;;;15.40;99.90;;;;;;8396431;28;19916;-81
2023/06/28 01:35:29;;;;;;;;;;;15.10;99.90;;;;;;8391406;28;19987;-80
2023/06/28 01:39:30;;;;;;;;;;;15.20;99.90;;;;;;8395992;28;20018;-81
2023/06/28 01:43:31;;;;;;;;;;;15.50;99.90;;;;;;8386930;28;19912;-80
2023/06/28 01:47:31;;;;;;;;;;;15.50;99.90;;;;;;8411024;28;19909;-81
2023/06/28 01:51:33;;;;;;;;;;;15.50;99.90;;;;;;8389684;28;19956;-80
2023/06/28 01:55:34;;;;;;;;;;;15.10;99.90;;;;;;8385016;28;19999;-81
2023/06/28 01:59:35;;;;;;;;;;;15.40;99.90;;;;;;8386465;28;20300;-80
2023/06/28 02:03:35;;;;;;;;;;;15.00;99.90;;;;;;8394780;28;20361;-82
2023/06/28 02:07:37;;;;;;;;;;;15.20;99.90;;;;;;8392062;28;20059;-82
2023/06/28 02:11:37;;;;;;;;;;;15.00;99.90;;;;;;8401912;28;20304;-81
2023/06/28 02:15:38;;;;;;;;;;;15.20;99.90;;;;;;8382578;28;19913;-82
2023/06/28 02:19:39;;;;;;;;;;;15.00;99.90;;;;;;8398006;28;19917;-80
2023/06/28 02:23:40;;;;;;;;;;;15.00;99.90;;;;;;8398649;28;19916;-80
2023/06/28 02:27:40;;;;;;;;;;;15.70;99.90;;;;;;8387975;28;20526;-81
2023/06/28 02:31:41;;;;;;;;;;;15.00;99.90;;;;;;8385802;28;19919;-80
2023/06/28 02:35:41;;;;;;;;;;;15.50;99.90;;;;;;8407366;28;20354;-82
2023/06/28 02:39:42;;;;;;;;;;;15.50;99.90;;;;;;8411731;28;19920;-79
2023/06/28 02:43:42;;;;;;;;;;;15.50;99.90;;;;;;8390887;28;19908;-82
2023/06/28 02:47:43;;;;;;;;;;;15.50;99.90;;;;;;8399034;28;19953;-80
2023/06/28 02:51:43;;;;;;;;;;;15.50;99.90;;;;;;8387039;28;19987;-81
2023/06/28 02:55:44;;;;;;;;;;;15.30;99.90;;;;;;8418393;28;20504;-80
2023/06/28 02:59:44;;;;;;;;;;;15.40;99.90;;;;;;8400297;28;19912;-80
2023/06/28 03:03:45;;;;;;;;;;;15.90;99.90;;;;;;8382294;28;19909;-80
2023/06/28 03:07:45;;;;;;;;;;;15.40;99.90;;;;;;8388436;28;20295;-82
2023/06/28 03:11:45;;;;;;;;;;;15.40;99.90;;;;;;8405946;28;19908;-81
2023/06/28 03:15:46;;;;;;;;;;;15.20;99.90;;;;;;8399775;28;19914;-82
2023/06/28 03:19:46;;;;;;;;;;;15.30;99.90;;;;;;8379209;28;19916;-81
2023/06/28 03:23:47;;;;;;;;;;;15.70;99.90;;;;;;8386190;28;19921;-80
2023/06/28 03:27:47;;;;;;;;;;;15.90;99.90;;;;;;8382824;28;19916;-81
2023/06/28 03:31:48;;;;;;;;;;;15.00;99.90;;;;;;8399844;28;19913;-81
2023/06/28 03:35:48;;;;;;;;;;;15.20;99.90;;;;;;8386337;28;19916;-80
2023/06/28 03:39:49;;;;;;;;;;;14.90;99.90;;;;;;8378742;28;19916;-82
2023/06/28 03:43:49;;;;;;;;;;;15.60;99.90;;;;;;8379783;28;19957;-82
2023/06/28 03:47:50;;;;;;;;;;;15.10;99.90;;;;;;8383948;28;20000;-82
2023/06/28 03:51:50;;;;;;;;;;;15.20;99.90;;;;;;8398236;28;20384;-80
2023/06/28 03:55:50;;;;;;;;;;;15.50;99.90;;;;;;8402335;28;19954;-80
2023/06/28 03:59:51;;;;;;;;;;;15.50;99.90;;;;;;8387791;28;20347;-82
2023/06/28 04:03:51;;;;;;;;;;;15.10;99.90;;;;;;8383558;28;19912;-82
2023/06/28 04:07:57;;;;;;;;;;;15.40;99.90;;;;;;8383301;28;19973;-81
2023/06/28 04:11:58;;;;;;;;;;;14.90;99.90;;;;;;8379015;28;19919;-82
2023/06/28 04:15:58;;;;;;;;;;;15.20;99.90;;;;;;8379968;28;19924;-81
2023/06/28 04:19:59;;;;;;;;;;;15.50;99.90;;;;;;8404087;28;19912;-81
2023/06/28 04:24:00;;;;;;;;;;;15.60;99.90;;;;;;8389652;28;19962;-82
2023/06/28 04:28:00;;;;;;;;;;;16.00;99.90;;;;;;8377726;28;19916;-80
2023/06/28 04:32:01;;;;;;;;;;;15.50;99.90;;;;;;8374734;28;20003;-81
2023/06/28 04:36:02;;;;;;;;;;;15.30;99.90;;;;;;8383965;28;19945;-81
2023/06/28 04:40:03;;;;;;;;;;;15.40;99.90;;;;;;8375324;28;19916;-81
2023/06/28 04:44:09;;;;;;;;;;;15.70;99.90;;;;;;8394544;28;19924;-80
2023/06/28 04:48:10;;;;;;;;;;;15.90;99.90;;;;;;8377369;28;19962;-82
2023/06/28 04:52:12;;;;;;;;;;;15.20;99.90;;;;;;8376604;28;20288;-82
2023/06/28 04:56:14;;;;;;;;;;;14.90;99.90;;;;;;8383650;28;20269;-80
2023/06/28 05:00:14;;;;;;;;;;;16.10;99.90;;;;;;8373468;28;19912;-81
2023/06/28 05:04:15;;;;;;;;;;;15.50;99.90;;;;;;8393288;28;19924;-79
2023/06/28 05:08:15;;;;;;;;;;;15.40;99.90;;;;;;8385379;28;19913;-81
2023/06/28 05:12:16;;;;;;;;;;;15.50;99.90;;;;;;8380901;28;20284;-78
2023/06/28 05:16:16;;;;;;;;;;;15.80;99.90;;;;;;8375940;28;19913;-78
2023/06/28 05:20:17;;;;;;;;;;;15.70;99.90;;;;;;8370001;28;19916;-78
2023/06/28 05:24:18;;;;;;;;;;;15.60;99.90;;;;;;8394750;28;19916;-79
2023/06/28 05:28:18;;;;;;;;;;;15.80;99.90;;;;;;8384496;28;20024;-81
2023/06/28 05:32:19;;;;;;;;;;;17.00;99.90;;;;;;8379458;28;20288;-79
2023/06/28 05:36:21;;;;;;;;;;;16.70;99.90;;;;;;8385448;28;20010;-79
2023/06/28 05:40:22;;;;;;;;;;;16.40;99.90;;;;;;8404112;28;19974;-82
2023/06/28 05:44:22;;;;;;;;;;;16.00;99.90;;;;;;8379782;28;19916;-78
2023/06/28 05:48:23;;;;;;;;;;;16.30;99.90;;;;;;8399770;28;20002;-81
2023/06/28 05:52:23;;;;;;;;;;;16.30;99.90;;;;;;8377780;28;19927;-78
2023/06/28 05:56:24;;;;;;;;;;;16.10;99.90;;;;;;8376839;28;20300;-81
2023/06/28 06:00:24;;;;;;;;;;;16.10;99.90;;;;;;8406076;28;19909;-80
2023/06/28 06:04:25;;;;;;;;;;;16.40;99.90;;;;;;8402854;28;20090;-78
2023/06/28 06:08:25;;;;;;;;;;;16.30;99.90;;;;;;8388182;28;20657;-81
2023/06/28 06:12:25;;;;;;;;;;;16.10;99.90;;;;;;8386667;28;19920;-80
2023/06/28 06:16:26;;;;;;;;;;;16.40;99.90;;;;;;8389395;28;19921;-80
2023/06/28 06:20:26;;;;;;;;;;;16.50;99.90;;;;;;8374675;28;20003;-80
2023/06/28 06:24:27;;;;;;;;;;;16.80;99.90;;;;;;8378290;28;20381;-78
2023/06/28 06:28:27;;;;;;;;;;;17.70;99.90;;;;;;8369962;28;19931;-78
2023/06/28 06:32:28;;;;;;;;;;;17.20;99.90;;;;;;8374704;28;19962;-79
2023/06/28 06:36:28;;;;;;;;;;;17.40;99.90;;;;;;8378026;28;19913;-81
2023/06/28 06:40:29;;;;;;;;;;;18.30;99.90;;;;;;8377213;28;19962;-79
2023/06/28 06:44:29;;;;;;;;;;;18.10;99.90;;;;;;8383261;28;20428;-78
2023/06/28 06:48:30;;;;;;;;;;;18.40;99.90;;;;;;8396254;28;19944;-79
2023/06/28 06:52:30;;;;;;;;;;;18.70;99.90;;;;;;8374620;28;19908;-78
2023/06/28 06:56:31;;;;;;;;;;;18.50;99.90;;;;;;8375165;28;19912;-79
2023/06/28 07:00:31;;;;;;;;;;;19.40;99.90;;;;;;8374940;28;19909;-80
2023/06/28 07:04:32;;;;;;;;;;;19.50;99.90;;;;;;8404258;28;19912;-78
2023/06/28 07:08:34;;;;;;;;;;;20.10;99.90;;;;;;8375754;28;20227;-80
2023/06/28 07:12:34;;;;;;;;;;;19.70;99.90;;;;;;8370202;28;19916;-79
2023/06/28 07:16:35;;;;;;;;;;;20.50;99.90;;;;;;8378522;28;20506;-78
2023/06/28 07:20:35;;;;;;;;;;;20.50;99.90;;;;;;8384207;28;20117;-79
2023/06/28 07:24:43;;;;;;;;;;;20.80;99.90;;;;;;8372344;28;19927;-82
2023/06/28 07:28:43;;;;;;;;;;;20.80;99.90;;;;;;8374230;28;19924;-78
2023/06/28 07:32:44;;;;;;;;;;;21.00;99.90;;;;;;8394762;28;20393;-78
2023/06/28 07:36:44;;;;;;;;;;;21.90;99.90;;;;;;8379481;28;19920;-78
2023/06/28 07:40:45;;;;;;;;;;;21.80;99.90;;;;;;8377227;28;20011;-78
2023/06/28 07:44:46;;;;;;;;;;;21.90;99.90;;;;;;8380807;28;19924;-78
2023/06/28 07:48:49;;;;;;;;;;;22.10;99.90;;;;;;8368802;28;20398;-79
2023/06/28 07:52:50;;;;;;;;;;;21.80;99.90;;;;;;8394197;28;19944;-82
2023/06/28 07:56:50;;;;;;;;;;;21.70;99.90;;;;;;8376859;28;20350;-84
2023/06/28 08:00:51;;;;;;;;;;;22.60;99.90;;;;;;8389972;28;19912;-83
2023/06/28 08:04:52;;;;;;;;;;;22.90;99.90;;;;;;8388947;28;19942;-84
2023/06/28 08:08:52;;;;;;;;;;;22.70;99.90;;;;;;8400117;28;19943;-84
2023/06/28 08:12:53;;;;;;;;;;;23.20;99.90;;;;;;8382683;28;19913;-83
2023/06/28 08:16:59;;;;;;;;;;;23.10;99.90;;;;;;8375542;28;20011;-82
2023/06/28 08:21:00;;;;;;;;;;;23.60;99.90;;;;;;8388801;28;20324;-83
2023/06/28 08:25:00;;;;;;;;;;;24.10;99.90;;;;;;8373631;28;19923;-82
2023/06/28 08:29:00;;;;;;;;;;;24.20;99.90;;;;;;8389329;28;19908;-84
2023/06/28 08:33:01;;;;;;;;;;;24.20;99.90;;;;;;8385782;28;19909;-82
2023/06/28 08:37:03;;;;;;;;;;;24.50;99.90;;;;;;8382537;28;19912;-83
2023/06/28 08:41:04;;;;;;;;;;;24.30;99.90;;;;;;8385761;28;20447;-82
2023/06/28 08:45:04;;;;;;;;;;;23.80;99.90;;;;;;8389805;28;19921;-82
2023/06/28 08:49:06;;;;;;;;;;;23.10;99.90;;;;;;8382374;28;19920;-82
2023/06/28 08:53:13;;;;;;;;;;;23.20;99.90;;;;;;8385075;28;19945;-80
2023/06/28 08:57:15;;;;;;;;;;;22.30;99.90;;;;;;8391870;28;19916;-82
2023/06/28 09:01:16;;;;;;;;;;;22.90;99.90;;;;;;8377988;28;19920;-82
2023/06/28 09:05:18;;;;;;;;;;;22.60;99.90;;;;;;8397888;28;19928;-83
2023/06/28 09:09:19;;;;;;;;;;;22.60;99.90;;;;;;8380802;28;20149;-83
2023/06/28 09:13:20;;;;;;;;;;;22.70;99.90;;;;;;8370414;28;19951;-82
2023/06/28 09:17:20;;;;;;;;;;;22.80;99.90;;;;;;8380571;28;19913;-84
2023/06/28 09:21:28;;;;;;;;;;;22.70;99.90;;;;;;8396386;28;20020;-83
2023/06/28 09:25:31;;;;;;;;;;;23.30;99.90;;;;;;8368237;28;20008;-83
2023/06/28 09:29:31;;;;;;;;;;;24.20;99.90;;;;;;8390316;28;20388;-82
2023/06/28 09:33:32;;;;;;;;;;;24.20;99.90;;;;;;8410443;28;19908;-83
2023/06/28 09:37:32;;;;;;;;;;;24.40;99.90;;;;;;8379759;28;19917;-84
2023/06/28 09:41:52;;;;;;;;;;;25.30;99.00;;;;;;8374072;28;19917;-83
2023/06/28 09:45:54;;;;;;;;;;;25.50;97.90;;;;;;8377203;28;19916;-82
2023/06/28 09:50:00;;;;;;;;;;;25.10;97.90;;;;;;8387548;28;19939;-83
2023/06/28 09:54:00;;;;;;;;;;;25.60;97.00;;;;;;8364866;28;20071;-83
2023/06/28 09:58:01;;;;;;;;;;;26.00;97.10;;;;;;8377559;28;20300;-82
2023/06/28 10:02:03;;;;;;;;;;;25.60;97.60;;;;;;8375227;28;20015;-81
2023/06/28 10:06:05;;;;;;;;;;;25.30;97.40;;;;;;8383444;28;19951;-82
2023/06/28 10:10:06;;;;;;;;;;;25.50;98.20;;;;;;8408999;28;19914;-84
2023/06/28 10:14:07;;;;;;;;;;;26.10;95.90;;;;;;8364549;28;19924;-83
2023/06/28 10:18:08;;;;;;;;;;;26.40;96.30;;;;;;8371287;28;20069;-83
2023/06/28 10:22:09;;;;;;;;;;;27.10;94.20;;;;;;8374331;28;19966;-82
2023/06/28 10:26:11;;;;;;;;;;;27.10;93.60;;;;;;8392452;28;20017;-82
2023/06/28 10:30:11;;;;;;;;;;;27.00;92.00;;;;;;8392454;28;19982;-84
2023/06/28 10:34:14;;;;;;;;;;;27.30;92.40;;;;;;8377653;28;19957;-81
2023/06/28 10:38:14;;;;;;;;;;;27.80;90.50;;;;;;8368428;28;21535;-82
2023/06/28 10:42:15;;;;;;;;;;;27.80;90.90;;;;;;8372277;28;20372;-82
2023/06/28 10:46:23;;;;;;;;;;;26.90;89.10;;;;;;8366084;28;19916;-83
2023/06/28 10:50:23;;;;;;;;;;;26.20;91.00;;;;;;8382168;28;19916;-84
2023/06/28 10:54:25;;;;;;;;;;;26.10;93.10;;;;;;8402383;28;20280;-83
2023/06/28 10:58:26;;;;;;;;;;;26.60;91.90;;;;;;8384468;28;19909;-82
2023/06/28 11:02:51;;;;;;;;;;;27.20;87.50;;;;;;8400146;28;21556;-82
2023/06/28 11:07:14;;;;;;;;;;;27.30;87.30;;;;;;8374052;28;19966;-83
2023/06/28 11:11:22;;;;;;;;;;;28.40;90.80;;;;;;8375924;28;20452;-81
2023/06/28 11:15:26;;;;;;;;;;;28.70;87.90;;;;;;8395807;28;19960;-83
2023/06/28 11:19:27;;;;;;;;;;;26.90;86.20;;;;;;8377653;28;19920;-84
2023/06/28 11:23:29;;;;;;;;;;;24.90;91.30;;;;;;8381596;28;20044;-82
2023/06/28 11:27:38;;;;;;;;;;;24.60;94.10;;;;;;8387466;28;19969;-84
2023/06/28 11:31:41;;;;;;;;;;;26.60;90.40;;;;;;8405681;28;19966;-84
2023/06/28 11:35:42;;;;;;;;;;;29.40;84.90;;;;;;8377074;28;19912;-84
2023/06/28 11:39:46;;;;;;;;;;;31.20;76.00;;;;;;8401006;28;20046;-83
2023/06/28 11:43:47;;;;;;;;;;;29.60;75.80;;;;;;8391706;28;19962;-83
2023/06/28 11:47:48;;;;;;;;;;;27.90;80.70;;;;;;8381604;28;19927;-83
2023/06/28 11:51:51;;;;;;;;;;;27.80;86.50;;;;;;8383434;28;20464;-83
2023/06/28 11:55:53;;;;;;;;;;;29.30;78.00;;;;;;8376872;28;19912;-84
2023/06/28 11:59:53;;;;;;;;;;;29.60;75.90;;;;;;8375805;28;19919;-84
2023/06/28 12:03:54;;;;;;;;;;;30.70;73.10;;;;;;8380678;28;19920;-85
2023/06/28 12:07:56;;;;;;;;;;;32.10;65.90;;;;;;8379992;28;19999;-85
2023/06/28 12:12:02;;;;;;;;;;;33.00;59.70;;;;;;8381618;28;19920;-84
2023/06/28 12:16:13;;;;;;;;;;;28.50;69.70;;;;;;8405519;28;20054;-85
2023/06/28 12:20:13;;;;;;;;;;;25.70;73.70;;;;;;8399963;28;20502;-85
2023/06/28 12:24:14;;;;;;;;;;;25.80;79.80;;;;;;8391921;28;19917;-84
2023/06/28 12:28:14;;;;;;;;;;;28.70;69.60;;;;;;8414377;28;19972;-83
2023/06/28 12:32:15;;;;;;;;;;;30.90;63.20;;;;;;8386701;28;19919;-84
2023/06/28 12:36:18;;;;;;;;;;;31.40;67.50;;;;;;8401217;28;19940;-83
2023/06/28 12:40:18;;;;;;;;;;;31.50;59.60;;;;;;8396704;28;19913;-85
2023/06/28 12:44:19;;;;;;;;;;;29.80;62.40;;;;;;8382988;28;20015;-85
2023/06/28 12:48:21;;;;;;;;;;;27.40;72.80;;;;;;8387125;28;19961;-84
2023/06/28 12:52:22;;;;;;;;;;;25.80;73.20;;;;;;8384323;28;19920;-85
2023/06/28 12:56:23;;;;;;;;;;;26.10;76.60;;;;;;8387235;28;19917;-77
2023/06/28 13:00:23;;;;;;;;;;;27.70;72.50;;;;;;8383131;28;19943;-78
2023/06/28 13:04:26;;;;;;;;;;;31.00;68.10;;;;;;8390643;28;19921;-78
2023/06/28 13:08:29;;;;;;;;;;;31.40;64.50;;;;;;8384581;28;19912;-79
2023/06/28 13:12:30;;;;;;;;;;;30.70;60.40;;;;;;8382785;28;19916;-79
2023/06/28 13:16:31;;;;;;;;;;;28.80;67.10;;;;;;8382912;28;20003;-78
2023/06/28 13:20:31;;;;;;;;;;;26.60;71.90;;;;;;8398807;28;19934;-77
2023/06/28 13:24:32;;;;;;;;;;;26.20;74.50;;;;;;8382996;28;19923;-77
2023/06/28 13:28:32;;;;;;;;;;;29.00;69.50;;;;;;8368476;28;19913;-77
2023/06/28 13:32:32;;;;;;;;;;;31.40;60.60;;;;;;8374726;28;19912;-78
2023/06/28 13:36:33;;;;;;;;;;;30.90;61.30;;;;;;8399464;28;19920;-78
2023/06/28 13:40:33;;;;;;;;;;;30.00;64.10;;;;;;8371907;28;19913;-78
2023/06/28 13:44:34;;;;;;;;;;;29.10;65.20;;;;;;8395049;28;19983;-77
2023/06/28 13:48:34;;;;;;;;;;;28.00;69.20;;;;;;8391762;28;20168;-77
2023/06/28 13:52:35;;;;;;;;;;;26.90;72.00;;;;;;8381334;28;19913;-77
2023/06/28 13:56:35;;;;;;;;;;;26.30;73.20;;;;;;8369178;28;19927;-78
2023/06/28 14:00:36;;;;;;;;;;;30.10;66.20;;;;;;8376394;28;20010;-78
2023/06/28 14:04:36;;;;;;;;;;;34.30;57.50;;;;;;8385109;28;19923;-78
2023/06/28 14:08:36;;;;;;;;;;;36.30;56.10;;;;;;8372864;28;19919;-78
2023/06/28 14:12:37;;;;;;;;;;;37.40;49.90;;;;;;8369255;28;19913;-79
2023/06/28 14:16:37;;;;;;;;;;;37.60;53.40;;;;;;8407798;28;20345;-78
2023/06/28 14:20:38;;;;;;;;;;;37.60;51.90;;;;;;8388591;28;20261;-77
2023/06/28 14:24:39;;;;;;;;;;;34.30;53.20;;;;;;8379833;28;19944;-78
2023/06/28 14:28:39;;;;;;;;;;;31.00;58.00;;;;;;8365825;28;19924;-78
2023/06/28 14:32:40;;;;;;;;;;;29.50;62.90;;;;;;8372933;28;20834;-77
2023/06/28 14:36:40;;;;;;;;;;;28.30;63.50;;;;;;8372976;28;20524;-79
2023/06/28 14:40:41;;;;;;;;;;;27.80;66.20;;;;;;8380207;28;19912;-76
2023/06/28 14:44:41;;;;;;;;;;;27.70;65.40;;;;;;8371344;28;19917;-78
2023/06/28 14:48:42;;;;;;;;;;;27.00;68.00;;;;;;8367674;28;19917;-78
2023/06/28 14:52:42;;;;;;;;;;;26.40;68.20;;;;;;8373114;28;20419;-77
2023/06/28 14:56:43;;;;;;;;;;;25.80;72.30;;;;;;8370853;28;19914;-78
2023/06/28 15:00:44;;;;;;;;;;;25.60;71.00;;;;;;8373150;28;19908;-77
2023/06/28 15:04:45;;;;;;;;;;;25.30;73.50;;;;;;8362457;28;19939;-78
2023/06/28 15:08:45;;;;;;;;;;;25.10;72.70;;;;;;8375632;28;20355;-78
2023/06/28 15:12:45;;;;;;;;;;;25.70;72.10;;;;;;8375575;28;19912;-79
2023/06/28 15:16:47;;;;;;;;;;;29.60;65.80;;;;;;8376232;28;20011;-78
2023/06/28 15:20:47;;;;;;;;;;;30.00;61.90;;;;;;8394881;28;19908;-79
2023/06/28 15:24:48;;;;;;;;;;;28.40;62.70;;;;;;8388140;28;19928;-79
2023/06/28 15:28:48;;;;;;;;;;;27.50;67.20;;;;;;8373570;28;19912;-78
2023/06/28 15:32:49;;;;;;;;;;;26.90;67.70;;;;;;8373758;28;19924;-78
2023/06/28 15:36:49;;;;;;;;;;;26.50;69.90;;;;;;8373653;28;19916;-78
2023/06/28 15:40:50;;;;;;;;;;;26.10;72.40;;;;;;8365541;28;19917;-78
2023/06/28 15:44:50;;;;;;;;;;;26.00;73.60;;;;;;8365233;28;19916;-78
2023/06/28 15:48:51;;;;;;;;;;;25.60;75.10;;;;;;8385653;28;19924;-78
2023/06/28 15:52:51;;;;;;;;;;;25.60;76.80;;;;;;8369469;28;20031;-79
2023/06/28 15:56:51;;;;;;;;;;;25.30;75.50;;;;;;8380393;28;20468;-78
2023/06/28 16:00:56;;;;;;;;;;;25.60;76.00;;;;;;8358915;28;20454;-79
2023/06/28 16:04:56;;;;;;;;;;;25.30;77.90;;;;;;8379402;28;19917;-78
2023/06/28 16:08:57;;;;;;;;;;;25.70;75.10;;;;;;8375523;28;19921;-78
2023/06/28 16:12:57;;;;;;;;;;;26.80;70.50;;;;;;8364369;28;19964;-76
2023/06/28 16:16:58;;;;;;;;;;;27.10;72.80;;;;;;8381335;28;19916;-77
2023/06/28 16:20:58;;;;;;;;;;;27.50;69.60;;;;;;8380635;28;19916;-77
2023/06/28 16:24:59;;;;;;;;;;;27.50;67.90;;;;;;8364896;28;19924;-78
2023/06/28 16:28:59;;;;;;;;;;;27.20;71.00;;;;;;8362659;28;19921;-77
2023/06/28 16:33:03;;;;;;;;;;;27.00;69.90;;;;;;8368495;28;19916;-77
2023/06/28 16:37:04;;;;;;;;;;;26.90;69.00;;;;;;8386101;28;19912;-77
2023/06/28 16:41:04;;;;;;;;;;;26.90;71.80;;;;;;8367845;28;19962;-76
2023/06/28 16:45:05;;;;;;;;;;;26.60;71.10;;;;;;8373730;28;20304;-77
2023/06/28 16:49:05;;;;;;;;;;;26.00;70.80;;;;;;8382036;28;19912;-76
2023/06/28 16:53:06;;;;;;;;;;;26.20;71.30;;;;;;8378379;28;20007;-77
2023/06/28 16:57:06;;;;;;;;;;;26.40;70.90;;;;;;8384792;28;19928;-77
2023/06/28 17:01:07;;;;;;;;;;;26.50;70.20;;;;;;8385208;28;20337;-77
2023/06/28 17:05:07;;;;;;;;;;;26.50;69.70;;;;;;8391806;28;19969;-77
2023/06/28 17:09:07;;;;;;;;;;;26.10;69.80;;;;;;8412582;28;20319;-77
2023/06/28 17:13:08;;;;;;;;;;;26.10;70.10;;;;;;8398598;28;19940;-77
2023/06/28 17:17:08;;;;;;;;;;;26.00;69.30;;;;;;8385640;28;20278;-77
2023/06/28 17:21:09;;;;;;;;;;;25.50;71.70;;;;;;8380912;28;19928;-77
2023/06/28 17:25:09;;;;;;;;;;;25.20;74.20;;;;;;8385782;28;19924;-77
2023/06/28 17:29:10;;;;;;;;;;;25.30;73.10;;;;;;8369902;28;20012;-77
2023/06/28 17:33:10;;;;;;;;;;;25.20;72.60;;;;;;8388909;28;19920;-77
2023/06/28 17:37:11;;;;;;;;;;;24.80;76.40;;;;;;8364837;28;20338;-77
2023/06/28 17:41:12;;;;;;;;;;;24.80;76.80;;;;;;8371606;28;19962;-77
2023/06/28 17:45:13;;;;;;;;;;;24.60;74.30;;;;;;8387205;28;20384;-77
2023/06/28 17:49:13;;;;;;;;;;;24.40;75.80;;;;;;8387083;28;19912;-77
2023/06/28 17:53:14;;;;;;;;;;;24.00;77.10;;;;;;8387672;28;19935;-77
2023/06/28 17:57:14;;;;;;;;;;;23.90;78.80;;;;;;8371397;28;20288;-77
2023/06/28 18:01:15;;;;;;;;;;;24.00;78.80;;;;;;8390441;28;19939;-76
2023/06/28 18:05:15;;;;;;;;;;;23.80;82.70;;;;;;8389752;28;19927;-76
2023/06/28 18:09:16;;;;;;;;;;;23.50;84.30;;;;;;8399838;28;19923;-76
2023/06/28 18:13:16;;;;;;;;;;;23.10;86.20;;;;;;8394821;28;20006;-77
2023/06/28 18:17:17;;;;;;;;;;;22.60;88.00;;;;;;8371853;28;19965;-77
2023/06/28 18:21:17;;;;;;;;;;;22.10;84.80;;;;;;8374347;28;19914;-78
2023/06/28 18:25:17;;;;;;;;;;;22.40;85.90;;;;;;8378929;28;19916;-77
2023/06/28 18:29:18;;;;;;;;;;;21.80;85.30;;;;;;8382574;28;19961;-77
2023/06/28 18:33:18;;;;;;;;;;;21.50;91.30;;;;;;8403105;28;20354;-77
2023/06/28 18:37:19;;;;;;;;;;;20.60;91.20;;;;;;8406239;28;19916;-77
2023/06/28 18:41:21;;;;;;;;;;;20.90;90.30;;;;;;8373829;28;20309;-76
2023/06/28 18:45:22;;;;;;;;;;;20.60;93.30;;;;;;8372002;28;19927;-77
2023/06/28 18:49:22;;;;;;;;;;;20.30;93.90;;;;;;8370593;28;19936;-76
2023/06/28 18:53:23;;;;;;;;;;;20.00;93.30;;;;;;8365654;28;19912;-77
2023/06/28 18:57:24;;;;;;;;;;;20.10;95.30;;;;;;8386973;28;20391;-76
2023/06/28 19:01:24;;;;;;;;;;;20.00;96.20;;;;;;8384311;28;19920;-77
2023/06/28 19:05:25;;;;;;;;;;;20.50;96.40;;;;;;8369627;28;19943;-75
2023/06/28 19:09:25;;;;;;;;;;;20.20;96.20;;;;;;8367662;28;19922;-75
2023/06/28 19:13:26;;;;;;;;;;;20.40;96.20;;;;;;8387531;28;19912;-77
2023/06/28 19:17:26;;;;;;;;;;;19.70;96.00;;;;;;8371129;28;19920;-76
2023/06/28 19:21:26;;;;;;;;;;;20.20;96.40;;;;;;8369893;28;19912;-77
2023/06/28 19:25:27;;;;;;;;;;;19.10;97.60;;;;;;8387330;28;19916;-76
2023/06/28 19:29:27;;;;;;;;;;;18.40;99.90;;;;;;8372283;28;19917;-77
2023/06/28 19:33:28;;;;;;;;;;;18.10;99.90;;;;;;8390937;28;19916;-77
2023/06/28 19:37:28;;;;;;;;;;;17.90;99.90;;;;;;8371419;28;19962;-76
2023/06/28 19:41:29;;;;;;;;;;;18.30;99.90;;;;;;8369338;28;19921;-76
2023/06/28 19:45:30;;;;;;;;;;;18.20;99.90;;;;;;8360316;28;21012;-76
2023/06/28 19:49:30;;;;;;;;;;;17.90;99.90;;;;;;8365504;28;19920;-79
2023/06/28 19:53:31;;;;;;;;;;;17.60;99.90;;;;;;8380650;28;19923;-79
2023/06/28 19:57:31;;;;;;;;;;;17.60;99.90;;;;;;8372548;28;19916;-81
2023/06/28 20:01:32;;;;;;;;;;;17.20;99.90;;;;;;8371976;28;19916;-80
2023/06/28 20:05:32;;;;;;;;;;;16.70;99.90;;;;;;8373374;28;19951;-81
2023/06/28 20:09:33;;;;;;;;;;;17.00;99.90;;;;;;8374051;28;19920;-80
2023/06/28 20:13:33;;;;;;;;;;;16.00;99.90;;;;;;8371143;28;19917;-80
2023/06/28 20:17:34;;;;;;;;;;;15.80;99.90;;;;;;8381284;28;20007;-80
2023/06/28 20:21:35;;;;;;;;;;;16.40;99.90;;;;;;8368207;28;19917;-78
2023/06/28 20:25:35;;;;;;;;;;;16.60;99.90;;;;;;8374880;28;20438;-80
2023/06/28 20:29:35;;;;;;;;;;;16.00;99.90;;;;;;8376714;28;19960;-79
2023/06/28 20:33:36;;;;;;;;;;;16.50;99.90;;;;;;8380711;28;19920;-79
2023/06/28 20:37:37;;;;;;;;;;;16.90;99.90;;;;;;8400880;28;19954;-80
2023/06/28 20:41:40;;;;;;;;;;;16.20;99.90;;;;;;8384363;28;19923;-79
2023/06/28 20:45:40;;;;;;;;;;;16.60;99.90;;;;;;8406928;28;19935;-79
2023/06/28 20:49:41;;;;;;;;;;;15.20;99.90;;;;;;8383623;28;20043;-81
2023/06/28 20:53:45;;;;;;;;;;;15.30;99.90;;;;;;8382632;28;19912;-79
2023/06/28 20:57:45;;;;;;;;;;;15.30;99.90;;;;;;8385101;28;19913;-80
2023/06/28 21:01:46;;;;;;;;;;;15.10;99.90;;;;;;8391256;28;19918;-79
2023/06/28 21:05:46;;;;;;;;;;;14.90;99.90;;;;;;8388813;28;19969;-79
2023/06/28 21:09:47;;;;;;;;;;;14.70;99.90;;;;;;8387010;28;19916;-81
2023/06/28 21:13:47;;;;;;;;;;;14.60;99.90;;;;;;8378299;28;19913;-78
2023/06/28 21:17:50;;;;;;;;;;;14.70;99.90;;;;;;8407336;28;20007;-80
2023/06/28 21:21:50;;;;;;;;;;;15.60;99.90;;;;;;8396930;28;19919;-80
2023/06/28 21:25:51;;;;;;;;;;;15.20;99.90;;;;;;8404532;28;20184;-80
2023/06/28 21:38:12;;;;;;;;;;;15.30;99.90;;;;;;920970;26;20222;-77
2023/06/28 21:42:12;;;;;;;;;;;15.00;99.90;;;;;;8402042;28;20626;-76
2023/06/28 21:46:13;;;;;;;;;;;14.80;99.90;;;;;;8420752;28;19916;-76
2023/06/28 21:50:13;;;;;;;;;;;14.70;99.90;;;;;;8420638;28;19951;-77
2023/06/28 21:54:18;;;;;;;;;;;14.50;99.90;;;;;;8394145;28;19919;-77
2023/06/28 21:58:18;;;;;;;;;;;14.50;99.90;;;;;;8402474;28;20015;-77
2023/06/28 22:02:23;;;;;;;;;;;14.30;99.90;;;;;;8402954;28;19908;-76
2023/06/28 22:06:23;;;;;;;;;;;14.50;99.90;;;;;;8398073;28;19923;-77
2023/06/28 22:10:24;;;;;;;;;;;14.50;99.90;;;;;;8403316;28;19991;-77
2023/06/28 22:14:24;;;;;;;;;;;14.20;99.90;;;;;;8398082;28;19912;-77
2023/06/28 22:18:25;;;;;;;;;;;14.50;99.90;;;;;;8410831;28;19919;-77
2023/06/28 22:22:25;;;;;;;;;;;13.60;99.90;;;;;;8401912;28;19958;-76
2023/06/28 22:26:26;;;;;;;;;;;13.60;99.90;;;;;;8400214;28;19916;-77
2023/06/28 22:30:26;;;;;;;;;;;13.40;99.90;;;;;;8398510;28;20426;-76
2023/06/28 22:34:27;;;;;;;;;;;13.60;99.90;;;;;;8397013;28;20031;-77
2023/06/28 22:38:27;;;;;;;;;;;13.30;99.90;;;;;;8416646;28;19916;-77
2023/06/28 22:42:28;;;;;;;;;;;13.40;99.90;;;;;;8384782;28;19989;-77
2023/06/28 22:46:28;;;;;;;;;;;12.90;99.90;;;;;;8407014;28;19912;-77
2023/06/28 22:50:29;;;;;;;;;;;12.90;99.90;;;;;;8402858;28;19916;-77
2023/06/28 22:54:29;;;;;;;;;;;12.60;99.90;;;;;;8417225;28;19918;-77
2023/06/28 22:58:30;;;;;;;;;;;12.60;99.90;;;;;;8398507;28;19917;-77
2023/06/28 23:02:30;;;;;;;;;;;12.60;99.90;;;;;;8414480;28;19932;-76
2023/06/28 23:06:31;;;;;;;;;;;12.20;99.90;;;;;;8424755;28;19965;-76
2023/06/28 23:10:31;;;;;;;;;;;12.20;99.90;;;;;;8390681;28;19908;-76
2023/06/28 23:14:32;;;;;;;;;;;12.40;99.90;;;;;;8389606;28;19916;-77
2023/06/28 23:18:32;;;;;;;;;;;12.00;99.90;;;;;;8402084;28;19915;-76
2023/06/28 23:22:33;;;;;;;;;;;12.10;99.90;;;;;;8387704;28;20377;-77
2023/06/28 23:26:33;;;;;;;;;;;12.30;99.90;;;;;;8400325;28;19912;-77
2023/06/28 23:30:37;;;;;;;;;;;12.00;99.90;;;;;;8392444;28;20046;-77